createdAt,value
2022-12-09T00:00:14.797Z,2.47
2022-12-09T00:01:14.470Z,2.50
2022-12-09T00:02:15.123Z,2.50
2022-12-09T00:03:18.841Z,2.48
2022-12-09T00:04:14.590Z,2.48
2022-12-09T00:05:15.330Z,2.45
2022-12-09T00:06:15.130Z,2.50
2022-12-09T00:07:14.688Z,2.50
2022-12-09T00:08:14.917Z,2.47
2022-12-09T00:09:15.349Z,2.45
2022-12-09T00:10:15.284Z,2.45
2022-12-09T00:11:14.391Z,2.50
2022-12-09T00:12:14.543Z,2.48
2022-12-09T00:13:14.422Z,2.50
2022-12-09T00:14:14.388Z,2.50
2022-12-09T00:15:14.997Z,2.51
2022-12-09T00:16:15.080Z,2.54
2022-12-09T00:17:15.227Z,2.53
2022-12-09T00:18:14.499Z,2.50
2022-12-09T00:19:14.412Z,2.48
2022-12-09T00:20:15.145Z,2.50
2022-12-09T00:21:14.549Z,2.48
2022-12-09T00:22:14.863Z,2.51
2022-12-09T00:23:15.278Z,2.48
2022-12-09T00:24:14.769Z,2.50
2022-12-09T00:25:15.235Z,2.50
2022-12-09T00:26:14.508Z,2.51
2022-12-09T00:27:14.868Z,2.48
2022-12-09T00:28:14.338Z,2.53
2022-12-09T00:29:14.290Z,2.51
2022-12-09T00:30:14.532Z,2.48
2022-12-09T00:31:14.437Z,2.51
2022-12-09T00:32:14.464Z,2.51
2022-12-09T00:33:14.535Z,2.53
2022-12-09T00:34:14.634Z,2.53
2022-12-09T00:35:14.247Z,2.48
2022-12-09T00:37:40.369Z,2.48
2022-12-09T00:38:40.398Z,2.50
2022-12-09T00:39:40.208Z,2.51
2022-12-09T00:40:40.213Z,2.51
2022-12-09T00:41:40.557Z,2.53
2022-12-09T00:42:40.360Z,2.54
2022-12-09T00:43:40.231Z,2.53
2022-12-09T00:44:40.481Z,2.54
2022-12-09T00:45:40.366Z,2.53
2022-12-09T00:46:40.597Z,2.54
2022-12-09T00:47:40.792Z,2.50
2022-12-09T00:48:40.730Z,2.51
2022-12-09T00:49:40.695Z,2.53
2022-12-09T00:50:40.288Z,2.47
2022-12-09T00:51:40.791Z,2.48
2022-12-09T00:52:40.880Z,2.47
2022-12-09T00:53:40.208Z,2.47
2022-12-09T00:54:40.741Z,2.43
2022-12-09T00:55:40.693Z,2.43
2022-12-09T00:56:40.942Z,2.45
2022-12-09T00:57:40.568Z,2.43
2022-12-09T00:58:40.371Z,2.43
2022-12-09T00:59:40.893Z,2.39
2022-12-09T01:00:40.081Z,2.37
2022-12-09T01:01:40.074Z,2.39
2022-12-09T01:02:40.705Z,2.37
2022-12-09T01:03:40.214Z,2.35
2022-12-09T01:04:40.334Z,2.35
2022-12-09T01:05:40.026Z,2.33
2022-12-09T01:06:40.320Z,2.33
2022-12-09T01:07:40.253Z,2.32
2022-12-09T01:08:40.320Z,2.25
2022-12-09T01:09:40.272Z,2.24
2022-12-09T01:10:40.346Z,2.18
2022-12-09T01:11:40.517Z,2.12
2022-12-09T01:12:40.271Z,2.12
2022-12-09T01:13:41.485Z,2.10
2022-12-09T01:14:39.984Z,2.04
2022-12-09T01:15:40.155Z,1.99
2022-12-09T01:16:40.173Z,1.95
2022-12-09T01:17:40.601Z,1.93
2022-12-09T01:18:40.236Z,1.82
2022-12-09T01:19:40.514Z,1.82
2022-12-09T01:20:40.380Z,1.74
2022-12-09T01:21:40.237Z,1.71
2022-12-09T01:22:40.826Z,1.62
2022-12-09T01:23:39.942Z,1.57
2022-12-09T01:24:39.999Z,1.56
2022-12-09T01:25:40.173Z,1.52
2022-12-09T01:26:40.898Z,1.45
2022-12-09T01:27:41.118Z,1.41
2022-12-09T01:28:40.330Z,1.44
2022-12-09T01:29:40.758Z,1.39
2022-12-09T01:30:40.124Z,1.39
2022-12-09T01:31:40.010Z,1.42
2022-12-09T01:32:40.287Z,1.41
2022-12-09T01:33:40.409Z,1.42
2022-12-09T01:34:40.538Z,1.42
2022-12-09T01:35:41.161Z,1.42
2022-12-09T01:36:40.820Z,1.45
2022-12-09T01:37:40.191Z,1.45
2022-12-09T01:38:40.237Z,1.45
2022-12-09T01:39:40.787Z,1.49
2022-12-09T01:40:40.762Z,1.49
2022-12-09T01:41:39.859Z,1.49
2022-12-09T01:48:23.853Z,1.49
2022-12-09T01:49:23.874Z,1.52
2022-12-09T01:50:23.639Z,1.49
2022-12-09T01:51:23.608Z,1.46
2022-12-09T01:52:23.761Z,1.44
2022-12-09T01:53:23.887Z,1.41
2022-12-09T01:54:23.626Z,1.39
2022-12-09T01:55:23.558Z,1.39
2022-12-09T01:56:23.607Z,1.34
2022-12-09T01:57:23.557Z,1.35
2022-12-09T01:58:23.559Z,1.30
2022-12-09T01:59:23.536Z,1.31
2022-12-09T02:00:23.549Z,1.28
2022-12-09T02:01:23.611Z,1.27
2022-12-09T02:02:23.537Z,1.26
2022-12-09T02:03:23.581Z,1.20
2022-12-09T02:04:23.782Z,1.23
2022-12-09T02:05:23.593Z,1.21
2022-12-09T02:06:23.580Z,1.17
2022-12-09T02:07:23.492Z,1.16
2022-12-09T02:09:49.613Z,1.16
2022-12-09T02:10:49.990Z,1.13
2022-12-09T02:11:49.890Z,1.12
2022-12-09T02:12:49.700Z,1.12
2022-12-09T02:13:50.167Z,1.12
2022-12-09T02:14:49.805Z,1.12
2022-12-09T02:15:49.737Z,1.10
2022-12-09T02:16:49.905Z,1.12
2022-12-09T02:17:49.656Z,1.08
2022-12-09T02:18:50.156Z,1.03
2022-12-09T02:19:50.245Z,1.06
2022-12-09T02:20:50.281Z,1.05
2022-12-09T02:21:49.621Z,0.99
2022-12-09T02:22:49.431Z,1.00
2022-12-09T02:23:49.423Z,0.94
2022-12-09T02:24:49.405Z,0.92
2022-12-09T02:25:49.621Z,0.87
2022-12-09T02:26:49.572Z,0.80
2022-12-09T02:27:49.704Z,0.80
2022-12-09T02:28:49.639Z,0.73
2022-12-09T02:29:50.011Z,0.76
2022-12-09T02:30:49.728Z,0.73
2022-12-09T02:31:50.109Z,0.72
2022-12-09T02:32:50.022Z,0.70
2022-12-09T02:33:50.143Z,0.72
2022-12-09T02:34:49.949Z,0.69
2022-12-09T02:35:49.415Z,0.67
2022-12-09T02:36:49.885Z,0.63
2022-12-09T02:37:49.830Z,0.62
2022-12-09T02:38:49.965Z,0.63
2022-12-09T02:39:49.415Z,0.63
2022-12-09T02:40:49.284Z,0.59
2022-12-09T02:41:50.281Z,0.56
2022-12-09T02:42:49.337Z,0.53
2022-12-09T02:43:50.357Z,0.53
2022-12-09T02:44:49.495Z,0.55
2022-12-09T02:45:49.368Z,0.55
2022-12-09T02:46:49.621Z,0.59
2022-12-09T02:47:49.678Z,0.60
2022-12-09T02:48:49.403Z,0.62
2022-12-09T02:49:49.400Z,0.60
2022-12-09T02:50:49.479Z,0.53
2022-12-09T02:51:49.465Z,0.53
2022-12-09T02:52:49.248Z,0.48
2022-12-09T02:53:49.233Z,0.47
2022-12-09T02:54:49.477Z,0.41
2022-12-09T02:55:49.250Z,0.35
2022-12-09T02:56:49.273Z,0.32
2022-12-09T02:57:49.385Z,0.32
2022-12-09T02:58:49.244Z,0.26
2022-12-09T02:59:49.531Z,0.17
2022-12-09T03:00:49.312Z,0.18
2022-12-09T03:01:49.290Z,0.22
2022-12-09T03:02:49.292Z,0.22
2022-12-09T03:03:49.289Z,0.29
2022-12-09T03:04:49.289Z,0.33
2022-12-09T03:05:49.505Z,0.30
2022-12-09T03:06:49.321Z,0.35
2022-12-09T03:07:49.310Z,0.36
2022-12-09T03:08:49.400Z,0.33
2022-12-09T03:09:49.248Z,0.29
2022-12-09T03:10:49.080Z,0.27
2022-12-09T03:11:49.054Z,0.26
2022-12-09T03:12:49.253Z,0.26
2022-12-09T03:13:49.250Z,0.22
2022-12-09T03:14:49.087Z,0.15
2022-12-09T03:15:49.355Z,0.11
2022-12-09T03:16:49.366Z,0.07
2022-12-09T03:17:49.410Z,0.07
2022-12-09T03:18:49.354Z,0.04
2022-12-09T03:19:49.723Z,-0.01
2022-12-09T03:20:49.734Z,-0.01
2022-12-09T03:21:49.011Z,0.04
2022-12-09T03:22:49.737Z,0.12
2022-12-09T03:23:49.054Z,0.23
2022-12-09T03:24:49.215Z,0.30
2022-12-09T03:25:49.493Z,0.33
2022-12-09T03:26:49.683Z,0.40
2022-12-09T03:27:49.267Z,0.45
2022-12-09T03:28:49.210Z,0.50
2022-12-09T03:29:49.296Z,0.50
2022-12-09T03:30:49.780Z,0.48
2022-12-09T03:31:49.280Z,0.45
2022-12-09T03:32:49.770Z,0.47
2022-12-09T03:33:49.708Z,0.47
2022-12-09T03:34:49.047Z,0.53
2022-12-09T03:35:48.916Z,0.50
2022-12-09T03:36:49.202Z,0.45
2022-12-09T03:37:48.982Z,0.43
2022-12-09T03:38:49.032Z,0.40
2022-12-09T03:39:49.026Z,0.41
2022-12-09T03:40:48.926Z,0.37
2022-12-09T03:41:48.866Z,0.43
2022-12-09T03:42:49.264Z,0.40
2022-12-09T03:43:49.385Z,0.47
2022-12-09T03:44:49.333Z,0.45
2022-12-09T03:45:49.157Z,0.45
2022-12-09T03:46:49.188Z,0.40
2022-12-09T03:47:49.412Z,0.37
2022-12-09T03:48:49.373Z,0.36
2022-12-09T03:49:48.837Z,0.40
2022-12-09T03:50:49.507Z,0.33
2022-12-09T03:51:49.048Z,0.30
2022-12-09T03:52:48.958Z,0.30
2022-12-09T03:53:48.814Z,0.25
2022-12-09T03:54:49.077Z,0.22
2022-12-09T03:55:49.006Z,0.22
2022-12-09T03:56:48.776Z,0.17
2022-12-09T03:57:48.992Z,0.15
2022-12-09T03:58:49.115Z,0.08
2022-12-09T03:59:49.533Z,0.09
2022-12-09T04:00:50.016Z,0.08
2022-12-09T04:01:49.396Z,0.04
2022-12-09T04:02:49.938Z,0.02
2022-12-09T04:03:49.563Z,0.04
2022-12-09T04:04:49.607Z,-0.07
2022-12-09T04:05:48.949Z,-0.09
2022-12-09T04:06:49.276Z,-0.14
2022-12-09T04:07:49.429Z,-0.14
2022-12-09T04:08:49.438Z,-0.17
2022-12-09T04:09:49.899Z,-0.16
2022-12-09T04:10:49.824Z,-0.13
2022-12-09T04:11:48.703Z,-0.07
2022-12-09T04:12:48.823Z,-0.01
2022-12-09T04:13:48.871Z,0.02
2022-12-09T04:14:49.047Z,0.05
2022-12-09T04:15:48.986Z,0.04
2022-12-09T04:16:50.222Z,0.04
2022-12-09T04:17:49.125Z,0.05
2022-12-09T04:18:49.203Z,0.05
2022-12-09T04:19:49.275Z,0.00
2022-12-09T04:20:49.037Z,0.02
2022-12-09T04:21:49.455Z,-0.01
2022-12-09T04:22:49.136Z,-0.09
2022-12-09T04:23:48.747Z,-0.11
2022-12-09T04:24:49.261Z,-0.14
2022-12-09T04:25:49.340Z,-0.20
2022-12-09T04:26:48.774Z,-0.21
2022-12-09T04:27:48.648Z,-0.21
2022-12-09T04:28:48.778Z,-0.20
2022-12-09T04:29:49.486Z,-0.16
2022-12-09T04:30:49.783Z,-0.14
2022-12-09T04:31:49.697Z,-0.09
2022-12-09T04:32:48.659Z,-0.11
2022-12-09T04:33:50.155Z,-0.07
2022-12-09T04:34:48.866Z,-0.10
2022-12-09T04:35:48.611Z,-0.07
2022-12-09T04:36:48.651Z,-0.07
2022-12-09T04:37:48.732Z,-0.10
2022-12-09T04:38:48.539Z,-0.04
2022-12-09T04:39:48.671Z,-0.09
2022-12-09T04:40:48.912Z,-0.10
2022-12-09T04:41:48.532Z,-0.10
2022-12-09T04:42:48.815Z,-0.06
2022-12-09T04:43:48.724Z,-0.10
2022-12-09T04:44:49.026Z,-0.13
2022-12-09T04:45:48.591Z,-0.11
2022-12-09T04:46:49.259Z,-0.14
2022-12-09T04:47:48.600Z,-0.07
2022-12-09T04:48:48.711Z,-0.04
2022-12-09T04:49:48.550Z,-0.07
2022-12-09T04:50:48.537Z,-0.10
2022-12-09T04:51:48.531Z,-0.10
2022-12-09T04:52:48.444Z,-0.09
2022-12-09T04:53:48.772Z,-0.07
2022-12-09T04:54:48.743Z,-0.07
2022-12-09T04:55:48.981Z,-0.11
2022-12-09T04:56:48.845Z,-0.13
2022-12-09T04:57:48.766Z,-0.14
2022-12-09T04:58:49.174Z,-0.13
2022-12-09T04:59:48.565Z,-0.14
2022-12-09T05:00:49.050Z,-0.17
2022-12-09T05:01:49.159Z,-0.14
2022-12-09T05:02:48.987Z,-0.13
2022-12-09T05:03:49.296Z,-0.14
2022-12-09T05:04:49.276Z,-0.22
2022-12-09T05:05:49.293Z,-0.20
2022-12-09T05:06:48.878Z,-0.21
2022-12-09T05:07:49.320Z,-0.20
2022-12-09T05:08:48.682Z,-0.21
2022-12-09T05:09:49.544Z,-0.25
2022-12-09T05:10:49.764Z,-0.27
2022-12-09T05:11:48.660Z,-0.28
2022-12-09T05:12:48.614Z,-0.29
2022-12-09T05:13:48.734Z,-0.34
2022-12-09T05:14:49.177Z,-0.38
2022-12-09T05:15:48.700Z,-0.40
2022-12-09T05:16:48.404Z,-0.42
2022-12-09T05:17:49.165Z,-0.42
2022-12-09T05:18:49.817Z,-0.43
2022-12-09T05:19:49.133Z,-0.42
2022-12-09T05:20:48.852Z,-0.47
2022-12-09T05:21:48.655Z,-0.43
2022-12-09T05:22:49.398Z,-0.47
2022-12-09T05:23:48.664Z,-0.47
2022-12-09T05:24:49.188Z,-0.49
2022-12-09T05:25:48.613Z,-0.46
2022-12-09T05:26:48.475Z,-0.47
2022-12-09T05:27:48.265Z,-0.47
2022-12-09T05:28:48.289Z,-0.46
2022-12-09T05:29:48.306Z,-0.58
2022-12-09T05:30:48.437Z,-0.61
2022-12-09T05:31:48.646Z,-0.66
2022-12-09T05:32:48.352Z,-0.66
2022-12-09T05:33:48.673Z,-0.61
2022-12-09T05:34:48.570Z,-0.68
2022-12-09T05:35:52.771Z,-0.70
2022-12-09T05:36:48.608Z,-0.75
2022-12-09T05:37:48.588Z,-0.75
2022-12-09T05:38:48.315Z,-0.79
2022-12-09T05:39:48.252Z,-0.79
2022-12-09T05:40:48.513Z,-0.81
2022-12-09T05:41:48.520Z,-0.81
2022-12-09T05:42:48.514Z,-0.78
2022-12-09T05:43:48.412Z,-0.78
2022-12-09T05:44:48.272Z,-0.81
2022-12-09T05:45:48.572Z,-0.81
2022-12-09T05:46:48.538Z,-0.84
2022-12-09T05:47:48.502Z,-0.82
2022-12-09T05:48:48.371Z,-0.86
2022-12-09T05:49:48.397Z,-0.82
2022-12-09T05:50:48.466Z,-0.89
2022-12-09T05:51:48.508Z,-0.94
2022-12-09T05:52:48.905Z,-0.97
2022-12-09T05:53:48.727Z,-0.98
2022-12-09T05:54:48.583Z,-1.00
2022-12-09T05:55:48.286Z,-0.97
2022-12-09T05:56:48.935Z,-0.89
2022-12-09T05:57:48.326Z,-0.82
2022-12-09T05:58:48.069Z,-0.81
2022-12-09T05:59:48.673Z,-0.78
2022-12-09T06:00:48.610Z,-0.76
2022-12-09T06:01:49.338Z,-0.81
2022-12-09T06:02:48.569Z,-0.84
2022-12-09T06:03:48.625Z,-0.86
2022-12-09T06:04:48.154Z,-0.86
2022-12-09T06:05:48.166Z,-0.85
2022-12-09T06:06:48.189Z,-0.85
2022-12-09T06:07:48.152Z,-0.86
2022-12-09T06:08:48.116Z,-0.82
2022-12-09T06:09:48.148Z,-0.79
2022-12-09T06:10:48.153Z,-0.79
2022-12-09T06:11:47.983Z,-0.75
2022-12-09T06:12:47.953Z,-0.73
2022-12-09T06:13:48.373Z,-0.76
2022-12-09T06:14:48.232Z,-0.78
2022-12-09T06:15:48.419Z,-0.81
2022-12-09T06:16:48.091Z,-0.79
2022-12-09T06:17:48.225Z,-0.82
2022-12-09T06:18:48.478Z,-0.85
2022-12-09T06:19:48.312Z,-0.89
2022-12-09T06:20:48.049Z,-0.86
2022-12-09T06:21:48.370Z,-0.92
2022-12-09T06:22:48.080Z,-0.97
2022-12-09T06:23:48.176Z,-0.97
2022-12-09T06:24:51.147Z,-1.03
2022-12-09T06:25:48.448Z,-1.10
2022-12-09T06:26:48.257Z,-1.10
2022-12-09T06:27:48.030Z,-1.18
2022-12-09T06:28:48.161Z,-1.19
2022-12-09T06:29:47.900Z,-1.19
2022-12-09T06:30:48.318Z,-1.18
2022-12-09T06:31:48.209Z,-1.15
2022-12-09T06:32:48.263Z,-1.15
2022-12-09T06:33:57.170Z,-1.11
2022-12-09T06:34:48.620Z,-1.10
2022-12-09T06:35:48.338Z,-1.07
2022-12-09T06:36:48.163Z,-1.11
2022-12-09T06:37:48.161Z,-1.11
2022-12-09T06:38:47.833Z,-1.08
2022-12-09T06:39:47.938Z,-1.04
2022-12-09T06:40:47.985Z,-1.07
2022-12-09T06:41:47.961Z,-1.08
2022-12-09T06:42:48.237Z,-1.10
2022-12-09T06:43:48.269Z,-1.10
2022-12-09T06:44:47.968Z,-1.15
2022-12-09T06:45:47.976Z,-1.18
2022-12-09T06:46:47.962Z,-1.15
2022-12-09T06:47:48.488Z,-1.16
2022-12-09T06:48:48.352Z,-1.18
2022-12-09T06:49:48.694Z,-1.16
2022-12-09T06:50:48.526Z,-1.19
2022-12-09T06:51:47.864Z,-1.26
2022-12-09T06:52:47.862Z,-1.29
2022-12-09T06:53:48.172Z,-1.28
2022-12-09T06:54:48.237Z,-1.31
2022-12-09T06:55:48.158Z,-1.33
2022-12-09T06:56:48.463Z,-1.31
2022-12-09T06:57:48.040Z,-1.33
2022-12-09T06:58:48.020Z,-1.29
2022-12-09T06:59:48.804Z,-1.26
2022-12-09T07:00:48.084Z,-1.28
2022-12-09T07:01:47.893Z,-1.25
2022-12-09T07:02:48.626Z,-1.23
2022-12-09T07:03:48.039Z,-1.22
2022-12-09T07:04:48.916Z,-1.21
2022-12-09T07:05:48.966Z,-1.22
2022-12-09T07:06:48.035Z,-1.23
2022-12-09T07:07:47.965Z,-1.26
2022-12-09T07:08:47.803Z,-1.26
2022-12-09T07:09:47.878Z,-1.28
2022-12-09T07:10:51.749Z,-1.29
2022-12-09T07:11:48.130Z,-1.26
2022-12-09T07:12:47.748Z,-1.29
2022-12-09T07:13:47.960Z,-1.28
2022-12-09T07:14:48.037Z,-1.29
2022-12-09T07:15:47.936Z,-1.23
2022-12-09T07:16:48.100Z,-1.25
2022-12-09T07:17:47.719Z,-1.29
2022-12-09T07:18:47.773Z,-1.26
2022-12-09T07:19:48.078Z,-1.23
2022-12-09T07:20:47.670Z,-1.15
2022-12-09T07:21:47.929Z,-1.15
2022-12-09T07:22:47.845Z,-1.11
2022-12-09T07:23:47.854Z,-1.15
2022-12-09T07:24:47.593Z,-1.08
2022-12-09T07:25:47.920Z,-1.00
2022-12-09T07:26:47.741Z,-0.97
2022-12-09T07:27:47.827Z,-0.94
2022-12-09T07:28:47.582Z,-0.92
2022-12-09T07:29:48.008Z,-0.89
2022-12-09T07:30:47.589Z,-0.85
2022-12-09T07:31:47.914Z,-0.82
2022-12-09T07:32:47.978Z,-0.81
2022-12-09T07:33:47.662Z,-0.76
2022-12-09T07:34:47.911Z,-0.75
2022-12-09T07:35:47.817Z,-0.71
2022-12-09T07:36:48.127Z,-0.67
2022-12-09T07:37:47.561Z,-0.66
2022-12-09T07:38:47.734Z,-0.60
2022-12-09T07:39:47.928Z,-0.52
2022-12-09T07:40:47.470Z,-0.52
2022-12-09T07:41:47.788Z,-0.45
2022-12-09T07:42:48.241Z,-0.39
2022-12-09T07:43:48.142Z,-0.42
2022-12-09T07:44:47.876Z,-0.34
2022-12-09T07:45:47.820Z,-0.35
2022-12-09T07:46:47.931Z,-0.31
2022-12-09T07:47:47.651Z,-0.32
2022-12-09T07:48:47.390Z,-0.28
2022-12-09T07:49:47.667Z,-0.27
2022-12-09T07:50:47.917Z,-0.24
2022-12-09T07:51:47.713Z,-0.25
2022-12-09T07:52:47.515Z,-0.25
2022-12-09T07:53:47.943Z,-0.20
2022-12-09T07:54:47.318Z,-0.20
2022-12-09T07:55:47.411Z,-0.13
2022-12-09T07:56:47.883Z,-0.17
2022-12-09T07:57:47.929Z,-0.16
2022-12-09T07:58:47.852Z,-0.13
2022-12-09T07:59:47.488Z,-0.16
2022-12-09T08:00:47.925Z,-0.11
2022-12-09T08:01:48.053Z,-0.16
2022-12-09T08:02:47.905Z,-0.13
2022-12-09T08:03:47.742Z,-0.11
2022-12-09T08:04:47.843Z,-0.13
2022-12-09T08:05:47.853Z,-0.10
2022-12-09T08:06:47.458Z,-0.13
2022-12-09T08:07:47.536Z,-0.13
2022-12-09T08:08:47.451Z,-0.13
2022-12-09T08:09:48.040Z,-0.16
2022-12-09T08:10:47.848Z,-0.17
2022-12-09T08:11:47.841Z,-0.17
2022-12-09T08:12:48.211Z,-0.21
2022-12-09T08:13:47.543Z,-0.21
2022-12-09T08:14:47.608Z,-0.22
2022-12-09T08:15:47.563Z,-0.25
2022-12-09T08:16:47.749Z,-0.22
2022-12-09T08:17:47.392Z,-0.24
2022-12-09T08:18:47.398Z,-0.24
2022-12-09T08:19:47.535Z,-0.25
2022-12-09T08:20:47.921Z,-0.25
2022-12-09T08:21:54.218Z,-0.21
2022-12-09T08:22:47.450Z,-0.22
2022-12-09T08:23:47.340Z,-0.20
2022-12-09T08:24:47.441Z,-0.16
2022-12-09T08:25:48.030Z,-0.10
2022-12-09T08:26:47.348Z,-0.13
2022-12-09T08:27:48.025Z,-0.11
2022-12-09T08:28:47.757Z,-0.04
2022-12-09T08:29:47.647Z,-0.03
2022-12-09T08:30:47.339Z,0.02
2022-12-09T08:31:47.374Z,0.00
2022-12-09T08:32:47.176Z,0.02
2022-12-09T08:33:47.419Z,0.07
2022-12-09T08:34:47.374Z,0.08
2022-12-09T08:35:47.602Z,0.09
2022-12-09T08:36:47.705Z,0.12
2022-12-09T08:37:47.856Z,0.18
2022-12-09T08:38:47.477Z,0.20
2022-12-09T08:39:47.240Z,0.25
2022-12-09T08:40:47.541Z,0.27
2022-12-09T08:41:47.285Z,0.27
2022-12-09T08:42:47.772Z,0.27
2022-12-09T08:43:47.780Z,0.32
2022-12-09T08:44:47.774Z,0.30
2022-12-09T08:45:47.661Z,0.30
2022-12-09T08:46:47.313Z,0.30
2022-12-09T08:47:47.070Z,0.32
2022-12-09T08:48:47.392Z,0.35
2022-12-09T08:49:48.225Z,0.33
2022-12-09T08:50:47.383Z,0.30
2022-12-09T08:51:46.940Z,0.30
2022-12-09T08:52:47.222Z,0.29
2022-12-09T08:53:47.017Z,0.26
2022-12-09T08:54:47.042Z,0.25
2022-12-09T08:55:47.661Z,0.26
2022-12-09T08:56:46.963Z,0.23
2022-12-09T08:57:47.096Z,0.27
2022-12-09T08:58:47.313Z,0.25
2022-12-09T08:59:47.313Z,0.26
2022-12-09T09:00:47.516Z,0.20
2022-12-09T09:01:48.348Z,0.22
2022-12-09T09:02:47.832Z,0.25
2022-12-09T09:03:47.115Z,0.29
2022-12-09T09:04:47.493Z,0.30
2022-12-09T09:05:47.510Z,0.33
2022-12-09T09:06:47.172Z,0.35
2022-12-09T09:07:47.599Z,0.32
2022-12-09T09:08:47.016Z,0.36
2022-12-09T09:09:47.144Z,0.33
2022-12-09T09:10:46.961Z,0.35
2022-12-09T09:11:46.864Z,0.40
2022-12-09T09:12:47.137Z,0.40
2022-12-09T09:13:47.169Z,0.35
2022-12-09T09:14:47.024Z,0.37
2022-12-09T09:15:47.265Z,0.37
2022-12-09T09:16:47.279Z,0.40
2022-12-09T09:17:51.597Z,0.36
2022-12-09T09:18:47.009Z,0.36
2022-12-09T09:19:47.188Z,0.29
2022-12-09T09:20:47.616Z,0.26
2022-12-09T09:21:47.204Z,0.27
2022-12-09T09:22:47.053Z,0.25
2022-12-09T09:23:47.456Z,0.26
2022-12-09T09:24:47.637Z,0.27
2022-12-09T09:25:46.976Z,0.26
2022-12-09T09:26:46.998Z,0.26
2022-12-09T09:27:47.751Z,0.25
2022-12-09T09:28:46.736Z,0.27
2022-12-09T09:29:46.946Z,0.27
2022-12-09T09:30:47.245Z,0.26
2022-12-09T09:31:47.877Z,0.29
2022-12-09T09:32:47.852Z,0.32
2022-12-09T09:33:47.035Z,0.33
2022-12-09T09:34:48.289Z,0.35
2022-12-09T09:35:48.018Z,0.35
2022-12-09T09:36:47.651Z,0.35
2022-12-09T09:37:47.738Z,0.35
2022-12-09T09:38:47.772Z,0.33
2022-12-09T09:39:46.691Z,0.30
2022-12-09T09:40:47.091Z,0.35
2022-12-09T09:41:47.298Z,0.35
2022-12-09T09:42:47.823Z,0.41
2022-12-09T09:43:47.148Z,0.43
2022-12-09T09:44:47.009Z,0.40
2022-12-09T09:45:46.637Z,0.43
2022-12-09T09:46:46.952Z,0.44
2022-12-09T09:47:47.155Z,0.45
2022-12-09T09:48:47.036Z,0.48
2022-12-09T09:49:47.034Z,0.53
2022-12-09T09:50:47.121Z,0.53
2022-12-09T09:51:46.827Z,0.56
2022-12-09T09:52:46.740Z,0.62
2022-12-09T09:53:47.396Z,0.66
2022-12-09T09:54:47.301Z,0.64
2022-12-09T09:55:47.436Z,0.64
2022-12-09T09:56:47.330Z,0.66
2022-12-09T09:57:46.627Z,0.69
2022-12-09T09:58:47.293Z,0.67
2022-12-09T09:59:47.004Z,0.64
2022-12-09T10:00:47.644Z,0.64
2022-12-09T10:01:47.785Z,0.67
2022-12-09T10:02:47.726Z,0.69
2022-12-09T10:03:47.846Z,0.73
2022-12-09T10:04:47.983Z,0.70
2022-12-09T10:05:47.960Z,0.78
2022-12-09T10:06:46.730Z,0.76
2022-12-09T10:07:47.315Z,0.80
2022-12-09T10:08:46.779Z,0.80
2022-12-09T10:09:47.016Z,0.88
2022-12-09T10:10:46.640Z,1.08
2022-12-09T10:11:47.125Z,1.12
2022-12-09T10:12:47.120Z,1.21
2022-12-09T10:13:47.320Z,1.30
2022-12-09T10:14:46.973Z,1.36
2022-12-09T10:15:47.074Z,1.52
2022-12-09T10:16:46.624Z,1.59
2022-12-09T10:17:47.040Z,1.78
2022-12-09T10:18:46.547Z,1.77
2022-12-09T10:19:47.026Z,1.81
2022-12-09T10:20:46.896Z,1.74
2022-12-09T10:21:46.758Z,1.77
2022-12-09T10:22:46.662Z,1.82
2022-12-09T10:23:46.923Z,2.01
2022-12-09T10:24:46.812Z,2.11
2022-12-09T10:25:46.641Z,2.28
2022-12-09T10:26:46.458Z,2.32
2022-12-09T10:27:46.582Z,2.36
2022-12-09T10:28:46.480Z,2.35
2022-12-09T10:29:46.509Z,2.33
2022-12-09T10:30:46.624Z,2.33
2022-12-09T10:31:46.726Z,2.35
2022-12-09T10:32:46.683Z,2.22
2022-12-09T10:33:46.508Z,2.15
2022-12-09T10:34:46.811Z,2.07
2022-12-09T10:35:46.772Z,2.04
2022-12-09T10:36:46.377Z,1.99
2022-12-09T10:37:46.621Z,1.95
2022-12-09T10:38:46.721Z,1.89
2022-12-09T10:39:46.566Z,1.80
2022-12-09T10:40:46.512Z,1.80
2022-12-09T10:41:46.312Z,1.81
2022-12-09T10:42:46.294Z,1.78
2022-12-09T10:43:46.641Z,1.81
2022-12-09T10:44:46.414Z,1.77
2022-12-09T10:46:16.700Z,1.59
2022-12-09T10:46:47.816Z,1.57
2022-12-09T10:47:46.433Z,1.49
2022-12-09T10:48:46.464Z,1.53
2022-12-09T10:49:46.679Z,1.45
2022-12-09T10:50:46.340Z,1.38
2022-12-09T10:51:46.738Z,1.36
2022-12-09T10:52:46.756Z,1.49
2022-12-09T10:53:46.170Z,1.48
2022-12-09T10:54:46.312Z,1.48
2022-12-09T10:55:46.222Z,1.49
2022-12-09T10:56:46.226Z,1.45
2022-12-09T10:57:46.587Z,1.48
2022-12-09T10:58:46.655Z,1.45
2022-12-09T10:59:46.219Z,1.39
2022-12-09T11:00:46.640Z,1.36
2022-12-09T11:01:46.599Z,1.36
2022-12-09T11:02:46.736Z,1.30
2022-12-09T11:03:46.548Z,1.28
2022-12-09T11:04:46.325Z,1.30
2022-12-09T11:05:46.286Z,1.34
2022-12-09T11:06:46.677Z,1.36
2022-12-09T11:07:46.609Z,1.27
2022-12-09T11:08:47.065Z,1.26
2022-12-09T11:09:46.940Z,1.24
2022-12-09T11:10:46.668Z,1.21
2022-12-09T11:11:46.367Z,1.09
2022-12-09T11:12:46.513Z,1.06
2022-12-09T11:13:46.779Z,1.02
2022-12-09T11:14:46.606Z,1.02
2022-12-09T11:15:46.395Z,0.99
2022-12-09T11:16:46.793Z,0.91
2022-12-09T11:17:52.418Z,0.74
2022-12-09T11:18:46.677Z,0.69
2022-12-09T11:19:47.068Z,0.69
2022-12-09T11:20:46.283Z,0.64
2022-12-09T11:21:46.220Z,0.66
2022-12-09T11:22:46.931Z,0.60
2022-12-09T11:23:46.273Z,0.63
2022-12-09T11:24:47.357Z,0.56
2022-12-09T11:25:46.032Z,0.59
2022-12-09T11:26:46.447Z,0.59
2022-12-09T11:27:46.119Z,0.59
2022-12-09T11:28:46.017Z,0.53
2022-12-09T11:29:46.183Z,0.51
2022-12-09T11:31:04.875Z,0.51
2022-12-09T11:31:46.494Z,0.59
2022-12-09T11:32:46.285Z,0.51
2022-12-09T11:33:46.561Z,0.50
2022-12-09T11:34:46.380Z,0.48
2022-12-09T11:35:46.306Z,0.47
2022-12-09T11:36:46.008Z,0.55
2022-12-09T11:37:45.906Z,0.62
2022-12-09T11:38:45.959Z,0.63
2022-12-09T11:39:46.014Z,0.59
2022-12-09T11:40:45.885Z,0.55
2022-12-09T11:41:45.856Z,0.53
2022-12-09T11:42:46.118Z,0.63
2022-12-09T11:43:45.886Z,0.62
2022-12-09T11:44:45.877Z,0.60
2022-12-09T11:45:45.846Z,0.63
2022-12-09T11:46:45.849Z,0.60
2022-12-09T11:48:45.887Z,0.73
2022-12-09T11:49:45.927Z,0.76
2022-12-09T11:50:45.835Z,0.80
2022-12-09T11:51:45.794Z,0.81
2022-12-09T11:52:45.794Z,0.82
2022-12-09T11:53:45.785Z,0.80
2022-12-09T11:54:45.803Z,0.80
2022-12-09T11:55:45.772Z,0.82
2022-12-09T11:56:45.764Z,0.81
2022-12-09T11:57:45.761Z,0.73
2022-12-09T11:58:45.760Z,0.67
2022-12-09T11:59:45.762Z,0.73
2022-12-09T12:00:45.761Z,0.74
2022-12-09T12:01:45.780Z,0.81
2022-12-09T12:02:45.837Z,0.88
2022-12-09T12:03:45.741Z,0.90
2022-12-09T12:04:45.721Z,0.91
2022-12-09T12:05:45.710Z,0.87
2022-12-09T12:06:46.019Z,0.92
2022-12-09T12:07:46.158Z,0.94
2022-12-09T12:08:45.826Z,0.99
2022-12-09T12:09:46.150Z,0.92
2022-12-09T12:10:45.678Z,1.03
2022-12-09T12:11:45.714Z,1.08
2022-12-09T12:12:45.676Z,1.03
2022-12-09T12:13:46.216Z,1.10
2022-12-09T12:14:45.655Z,1.16
2022-12-09T12:15:45.647Z,1.16
2022-12-09T12:16:45.644Z,1.06
2022-12-09T12:17:45.697Z,1.05
2022-12-09T12:18:45.708Z,1.05
2022-12-09T12:19:45.623Z,1.09
2022-12-09T12:20:45.616Z,1.06
2022-12-09T12:21:45.603Z,1.08
2022-12-09T12:22:50.199Z,1.03
2022-12-09T12:23:46.024Z,1.08
2022-12-09T12:24:45.596Z,1.10
2022-12-09T12:25:45.583Z,1.16
2022-12-09T12:26:45.833Z,1.18
2022-12-09T12:27:45.567Z,1.24
2022-12-09T12:28:46.190Z,1.27
2022-12-09T12:29:46.332Z,1.30
2022-12-09T12:30:45.632Z,1.31
2022-12-09T12:31:45.610Z,1.34
2022-12-09T12:32:48.911Z,1.35
2022-12-09T12:34:23.547Z,1.39
2022-12-09T12:34:45.597Z,1.39
2022-12-09T12:35:45.530Z,1.44
2022-12-09T12:36:45.521Z,1.52
2022-12-09T12:37:45.730Z,1.45
2022-12-09T12:38:45.518Z,1.42
2022-12-09T12:39:45.560Z,1.39
2022-12-09T12:40:45.600Z,1.38
2022-12-09T12:41:46.440Z,1.41
2022-12-09T12:42:45.478Z,1.38
2022-12-09T12:43:45.501Z,1.36
2022-12-09T12:44:46.150Z,1.36
2022-12-09T12:45:48.023Z,1.35
2022-12-09T12:46:46.637Z,1.35
2022-12-09T12:47:45.912Z,1.34
2022-12-09T12:48:46.273Z,1.34
2022-12-09T12:49:45.986Z,1.26
2022-12-09T12:50:46.337Z,1.26
2022-12-09T12:51:48.502Z,1.24
2022-12-09T12:52:56.206Z,1.34
2022-12-09T12:53:45.444Z,1.31
2022-12-09T12:54:45.395Z,1.34
2022-12-09T12:55:45.394Z,1.39
2022-12-09T12:56:45.386Z,1.41
2022-12-09T12:57:45.386Z,1.45
2022-12-09T12:58:45.405Z,1.44
2022-12-09T12:59:45.384Z,1.45
2022-12-09T13:00:45.385Z,1.49
2022-12-09T13:01:45.519Z,1.55
2022-12-09T13:02:45.463Z,1.55
2022-12-09T13:03:45.396Z,1.62
2022-12-09T13:04:45.331Z,1.63
2022-12-09T13:05:45.332Z,1.66
2022-12-09T13:06:45.322Z,1.64
2022-12-09T13:07:45.353Z,1.64
2022-12-09T13:08:45.320Z,1.62
2022-12-09T13:09:45.934Z,1.62
2022-12-09T13:10:46.000Z,1.66
2022-12-09T13:11:45.289Z,1.71
2022-12-09T13:12:46.093Z,1.73
2022-12-09T13:13:45.426Z,1.75
2022-12-09T13:14:50.254Z,1.77
2022-12-09T13:15:46.134Z,1.78
2022-12-09T13:16:45.280Z,1.80
2022-12-09T13:17:46.323Z,1.81
2022-12-09T13:18:45.318Z,1.84